Terminal Aerodrome Forecast
Issued by NWS

Home | Current Version | Previous Version | Text Only | Print | Product List | Glossary On
Versions: 1 2 3 4 5 6 7 8 9 10 11 12 13
467
FTUS42 KTAE 301728
TAFDHN
TAF
KDHN 301728Z 3018/3118 20010KT P6SM SCT030
      TEMPO 3023/3101 TSRA BKN030CB
     FM310100 19008KT 3SM TSRA BKN025CB
     FM310900 24006KT P6SM BKN030=

USA.gov is the U.S. government's official web portal to all federal, state and local government web resources and services.